Time;durP1;ratioP1;P1;durP2;ratioP2;P2;SDS_P1;SDS_P2;PMS_P1;PMS_P2;Temp;Humidity;BMP_temperature;BMP_pressure;BME280_temperature;BME280_humidity;BME280_pressure;Samples;Min_cycle;Max_cycle;Signal;HPM_P1;HPM_P2
2021/07/01 00:00:33;;;;;;;3.90;3.50;;;;;;;11.16;88.77;95496.03;5052635;28;20626;-78
2021/07/01 00:02:58;;;;;;;3.80;3.50;;;;;;;11.16;88.68;95502.06;5032812;28;20186;-77
2021/07/01 00:05:23;;;;;;;3.80;3.43;;;;;;;11.22;88.48;95506.66;5034622;28;20188;-78
2021/07/01 00:07:49;;;;;;;4.57;3.90;;;;;;;11.19;88.69;95500.91;5051401;28;20193;-78
2021/07/01 00:10:22;;;;;;;4.97;3.40;;;;;;;11.16;88.60;95499.44;5034920;28;20189;-78
2021/07/01 00:12:48;;;;;;;4.00;3.60;;;;;;;11.13;88.59;95497.16;5049010;28;20212;-77
2021/07/01 00:15:19;;;;;;;4.77;3.50;;;;;;;11.26;88.29;95496.75;5024072;28;20211;-76
2021/07/01 00:17:45;;;;;;;3.60;3.30;;;;;;;11.23;88.00;95499.66;5051567;28;20247;-77
2021/07/01 00:20:11;;;;;;;3.10;2.80;;;;;;;11.22;87.96;95498.00;5052574;28;20175;-77
2021/07/01 00:22:37;;;;;;;4.53;3.13;;;;;;;11.18;88.11;95499.28;5047407;28;20235;-78
2021/07/01 00:25:04;;;;;;;4.87;3.33;;;;;;;11.20;88.52;95507.75;5032906;28;20665;-77
2021/07/01 00:27:29;;;;;;;3.30;3.00;;;;;;;11.20;88.50;95503.38;5034566;28;20244;-78
2021/07/01 00:29:55;;;;;;;3.37;3.07;;;;;;;11.26;88.41;95502.75;5052384;28;20273;-78
2021/07/01 00:32:21;;;;;;;3.13;2.80;;;;;;;11.22;88.50;95505.81;5051072;28;20572;-78
2021/07/01 00:34:46;;;;;;;3.20;2.90;;;;;;;11.16;88.36;95501.25;5030990;28;20193;-76
2021/07/01 00:37:11;;;;;;;3.20;2.90;;;;;;;11.26;88.26;95509.75;5043011;28;20227;-78
2021/07/01 00:39:37;;;;;;;2.50;2.30;;;;;;;11.20;88.24;95498.16;5051308;28;20189;-78
2021/07/01 00:42:02;;;;;;;2.87;2.60;;;;;;;11.16;87.91;95502.06;5052636;28;20174;-77
2021/07/01 00:44:28;;;;;;;2.40;2.20;;;;;;;11.20;87.78;95502.56;5047592;28;20561;-78
2021/07/01 00:46:53;;;;;;;2.90;2.70;;;;;;;11.16;88.06;95507.25;5033855;28;20202;-78
2021/07/01 00:49:18;;;;;;;2.93;2.53;;;;;;;11.17;87.63;95506.28;5050826;28;20267;-77
2021/07/01 00:51:44;;;;;;;3.37;2.27;;;;;;;11.19;87.32;95509.53;5051080;28;20182;-77
2021/07/01 00:54:09;;;;;;;2.40;2.20;;;;;;;11.20;86.91;95502.56;5050390;28;20266;-76
2021/07/01 00:56:37;;;;;;;4.13;2.53;;;;;;;11.18;87.08;95499.28;5046780;28;20284;-76
2021/07/01 00:59:03;;;;;;;4.40;2.50;;;;;;;11.18;87.28;95501.91;5050867;28;20265;-78
2021/07/01 01:01:28;;;;;;;2.23;2.03;;;;;;;11.21;87.31;95498.97;5034019;28;20271;-78
2021/07/01 01:03:53;;;;;;;2.87;2.63;;;;;;;11.23;87.25;95503.09;5033704;28;20204;-77
2021/07/01 01:06:19;;;;;;;2.53;2.27;;;;;;;11.22;87.10;95505.81;5043093;28;20209;-78
2021/07/01 01:08:44;;;;;;;2.67;2.37;;;;;;;11.19;87.18;95509.53;5050893;28;20186;-77
2021/07/01 01:11:10;;;;;;;2.87;2.53;;;;;;;11.17;86.54;95508.06;5050410;28;20220;-77
2021/07/01 01:13:35;;;;;;;2.90;2.47;;;;;;;11.30;86.24;95516.25;5049638;28;20202;-77
2021/07/01 01:16:02;;;;;;;4.60;2.13;;;;;;;11.23;86.62;95515.25;5035730;28;20225;-78
2021/07/01 01:18:27;;;;;;;2.57;2.37;;;;;;;11.22;86.90;95516.19;5055470;28;20186;-78
2021/07/01 01:20:57;;;;;;;3.20;2.90;;;;;;;11.23;86.47;95521.28;5038029;28;20641;-78
2021/07/01 01:23:23;;;;;;;3.37;2.83;;;;;;;11.23;86.60;95517.84;5054031;28;20204;-78
2021/07/01 01:25:50;;;;;;;2.83;2.60;;;;;;;11.20;86.67;95513.75;5054331;28;20177;-77
2021/07/01 01:28:17;;;;;;;4.57;3.10;;;;;;;11.17;87.12;95516.69;5045410;28;20216;-78
2021/07/01 01:30:43;;;;;;;3.50;2.83;;;;;;;11.19;86.96;95517.34;5033489;28;20186;-78
2021/07/01 01:33:09;;;;;;;4.97;3.10;;;;;;;11.09;87.36;95508.00;5053670;28;20206;-77
2021/07/01 01:35:36;;;;;;;6.13;3.30;;;;;;;11.19;86.89;95508.72;5037287;28;20276;-78
2021/07/01 01:38:02;;;;;;;3.40;3.10;;;;;;;11.16;86.99;95507.25;5050680;28;20205;-77
2021/07/01 01:40:28;;;;;;;3.30;3.00;;;;;;;11.12;87.52;95512.88;5053681;28;20194;-76
2021/07/01 01:42:53;;;;;;;3.33;2.60;;;;;;;11.07;87.64;95505.56;5037569;28;20700;-79
2021/07/01 01:45:18;;;;;;;3.60;3.30;;;;;;;11.11;87.49;95514.66;5054309;28;20246;-79
2021/07/01 01:47:48;;;;;;;4.07;3.53;;;;;;;11.11;87.46;95511.25;5051995;28;20213;-78
2021/07/01 01:50:21;;;;;;;3.50;2.90;;;;;;;11.14;87.23;95509.19;5030270;28;20689;-78
2021/07/01 01:52:47;;;;;;;3.37;2.60;;;;;;;11.16;86.59;95506.44;5037350;28;20255;-78
2021/07/01 01:55:13;;;;;;;4.20;3.27;;;;;;;11.13;86.96;95509.31;5037168;28;20193;-77
2021/07/01 01:57:43;;;;;;;4.20;2.50;;;;;;;11.22;86.64;95511.00;5053370;28;20202;-78
2021/07/01 02:00:09;;;;;;;4.20;2.83;;;;;;;11.21;86.78;95509.38;5034062;28;20236;-76
2021/07/01 02:02:35;;;;;;;3.57;2.83;;;;;;;11.21;86.59;95511.97;5046750;28;20193;-78
2021/07/01 02:05:00;;;;;;;2.83;2.53;;;;;;;11.19;86.91;95511.31;5054117;28;20178;-76
2021/07/01 02:07:25;;;;;;;3.63;3.03;;;;;;;11.20;86.82;95512.94;5036666;28;20297;-77
2021/07/01 02:09:51;;;;;;;3.17;2.60;;;;;;;11.19;86.84;95501.75;5029318;28;20202;-77
2021/07/01 02:12:16;;;;;;;2.90;2.70;;;;;;;11.19;86.37;95506.13;5053224;28;20202;-78
2021/07/01 02:14:41;;;;;;;3.10;2.70;;;;;;;11.21;86.65;95507.59;5035672;28;20182;-77
2021/07/01 02:17:06;;;;;;;3.20;2.90;;;;;;;11.23;86.48;95499.66;5052860;28;20229;-77
2021/07/01 02:19:32;;;;;;;3.23;2.93;;;;;;;11.21;86.12;95506.78;5034436;28;20182;-77
2021/07/01 02:21:57;;;;;;;3.00;2.70;;;;;;;11.20;86.26;95510.34;5052380;28;20217;-77
2021/07/01 02:24:22;;;;;;;3.67;2.60;;;;;;;11.19;86.67;95514.72;5034831;28;20209;-77
2021/07/01 02:26:48;;;;;;;2.60;2.40;;;;;;;11.19;86.79;95506.94;5053855;28;20193;-77
2021/07/01 02:29:13;;;;;;;6.27;2.60;;;;;;;11.16;86.95;95501.25;5036202;28;20599;-78
2021/07/01 02:31:38;;;;;;;3.57;2.50;;;;;;;11.23;86.06;95515.25;5045437;28;20653;-77
2021/07/01 02:34:03;;;;;;;2.93;2.63;;;;;;;11.13;86.83;95514.50;5053827;28;20205;-77
2021/07/01 02:36:29;;;;;;;3.43;2.33;;;;;;;11.22;86.36;95516.19;5054117;28;20202;-77
2021/07/01 02:38:54;;;;;;;2.60;1.93;;;;;;;11.24;86.41;95519.50;5052784;28;20177;-78
2021/07/01 02:41:19;;;;;;;2.30;2.00;;;;;;;11.19;86.98;95522.53;5048597;28;20278;-78
2021/07/01 02:43:45;;;;;;;2.03;1.83;;;;;;;11.16;87.08;95517.66;5048615;28;20188;-77
2021/07/01 02:46:10;;;;;;;2.50;1.60;;;;;;;11.17;87.12;95518.47;5036026;28;20292;-78
2021/07/01 02:48:36;;;;;;;1.50;1.40;;;;;;;11.12;87.48;95525.88;5052764;28;20185;-78
2021/07/01 02:51:01;;;;;;;2.13;1.70;;;;;;;11.12;87.72;95526.69;5036056;28;20233;-78
2021/07/01 02:53:26;;;;;;;1.50;1.40;;;;;;;11.10;87.79;95530.41;5047628;28;20285;-78
2021/07/01 02:55:51;;;;;;;1.20;1.10;;;;;;;11.09;87.50;95521.00;5035884;28;20262;-77
2021/07/01 02:58:17;;;;;;;1.27;1.17;;;;;;;11.05;88.09;95531.72;5053944;28;20253;-78
2021/07/01 03:00:42;;;;;;;1.53;1.30;;;;;;;11.03;88.24;95538.81;5053885;28;20177;-77
2021/07/01 03:03:07;;;;;;;1.77;1.30;;;;;;;10.96;88.26;95527.41;5031423;28;20177;-78
2021/07/01 03:05:33;;;;;;;1.33;1.20;;;;;;;11.03;88.77;95527.59;5052707;28;20251;-78
2021/07/01 03:07:58;;;;;;;2.37;1.90;;;;;;;11.00;88.70;95531.31;5052623;28;20680;-78
2021/07/01 03:10:23;;;;;;;1.63;1.53;;;;;;;11.04;88.61;95524.03;5035843;28;20205;-78
2021/07/01 03:12:49;;;;;;;5.67;2.17;;;;;;;11.04;88.27;95527.47;5050887;28;20198;-76
2021/07/01 03:15:14;;;;;;;2.30;2.10;;;;;;;11.00;88.41;95525.31;5045614;28;20192;-78
2021/07/01 03:17:39;;;;;;;2.90;2.13;;;;;;;11.01;88.37;95527.75;5035763;28;20576;-78
2021/07/01 03:20:06;;;;;;;2.50;2.30;;;;;;;10.97;88.82;95518.66;5052393;28;20216;-78
2021/07/01 03:22:31;;;;;;;2.40;2.20;;;;;;;11.06;88.03;95520.34;5052489;28;20281;-77
2021/07/01 03:24:56;;;;;;;4.33;2.30;;;;;;;10.98;88.53;95528.06;5048454;28;20213;-77
2021/07/01 03:27:21;;;;;;;3.90;2.40;;;;;;;11.07;87.93;95523.75;5052075;28;20689;-78
2021/07/01 03:29:47;;;;;;;2.90;2.13;;;;;;;10.95;88.04;95510.16;5053558;28;20187;-77
2021/07/01 03:32:12;;;;;;;3.03;2.50;;;;;;;11.00;88.47;95515.72;5052181;28;20209;-77
2021/07/01 03:34:37;;;;;;;2.60;2.40;;;;;;;11.01;88.48;95519.97;5031660;28;20193;-78
2021/07/01 03:37:03;;;;;;;2.63;2.43;;;;;;;11.00;88.68;95522.72;5051094;28;20216;-78
2021/07/01 03:39:28;;;;;;;4.20;2.47;;;;;;;10.96;88.55;95517.03;5051913;28;20706;-77
2021/07/01 03:41:54;;;;;;;2.50;2.30;;;;;;;10.93;88.63;95526.88;5053103;28;20181;-78
2021/07/01 03:44:19;;;;;;;3.93;2.40;;;;;;;10.90;88.54;95522.00;5051110;28;20316;-77
2021/07/01 03:46:44;;;;;;;2.93;2.63;;;;;;;10.95;88.19;95515.34;5043924;28;20292;-78
2021/07/01 03:49:12;;;;;;;2.80;2.47;;;;;;;10.98;87.76;95529.84;5051590;28;20657;-78
2021/07/01 03:51:37;;;;;;;3.63;2.90;;;;;;;11.03;87.88;95523.22;5051662;28;20182;-77
2021/07/01 03:54:04;;;;;;;3.97;2.90;;;;;;;11.01;87.64;95522.56;5051168;28;20209;-78
2021/07/01 03:56:40;;;;;;;3.77;2.93;;;;;;;11.04;87.79;95519.69;5032413;28;20206;-77
2021/07/01 03:59:06;;;;;;;3.97;2.77;;;;;;;11.05;87.78;95521.31;5036184;28;20692;-78
2021/07/01 04:01:31;;;;;;;3.13;2.83;;;;;;;11.05;87.83;95521.31;5052652;28;20205;-78
2021/07/01 04:03:56;;;;;;;3.80;2.90;;;;;;;11.13;87.76;95519.72;5052262;28;20173;-78
2021/07/01 04:06:21;;;;;;;2.70;2.50;;;;;;;11.19;87.45;95519.94;5048597;28;20228;-77
2021/07/01 04:08:47;;;;;;;5.70;3.23;;;;;;;11.15;86.89;95525.59;5048212;28;20660;-77
2021/07/01 04:11:12;;;;;;;4.23;2.17;;;;;;;11.19;86.98;95529.50;5051366;28;20169;-78
2021/07/01 04:13:37;;;;;;;2.13;1.93;;;;;;;11.20;86.82;95536.34;5051901;28;20255;-78
2021/07/01 04:16:03;;;;;;;3.90;2.03;;;;;;;11.23;86.67;95542.06;5034648;28;20221;-77
2021/07/01 04:18:28;;;;;;;2.00;1.90;;;;;;;11.23;87.06;95538.66;5047448;28;20225;-78
2021/07/01 04:20:53;;;;;;;1.63;1.53;;;;;;;11.23;86.84;95538.66;5050726;28;20188;-78
2021/07/01 04:23:19;;;;;;;1.60;1.40;;;;;;;11.25;86.90;95541.91;5050694;28;20178;-78
2021/07/01 04:25:50;;;;;;;2.10;1.83;;;;;;;11.27;87.22;95543.38;5051044;28;20263;-77
2021/07/01 04:28:15;;;;;;;1.93;1.73;;;;;;;11.29;86.95;95544.03;5048406;28;20641;-78
2021/07/01 04:30:41;;;;;;;1.70;1.60;;;;;;;11.23;87.31;95554.25;5050816;28;20227;-78
2021/07/01 04:33:06;;;;;;;1.70;1.60;;;;;;;11.25;87.24;95547.09;5034108;28;20220;-77
2021/07/01 04:35:31;;;;;;;2.47;1.80;;;;;;;11.22;87.30;95548.25;5033963;28;20182;-78
2021/07/01 04:37:57;;;;;;;2.30;1.80;;;;;;;11.24;87.34;95545.47;5050343;28;20251;-77
2021/07/01 04:40:22;;;;;;;1.70;1.60;;;;;;;11.25;87.59;95541.91;5030113;28;20197;-77
2021/07/01 04:42:48;;;;;;;1.77;1.60;;;;;;;11.32;87.22;95548.97;5034087;28;20186;-78
2021/07/01 04:45:13;;;;;;;3.40;1.53;;;;;;;11.27;87.11;95539.97;5034190;28;20181;-77
2021/07/01 04:47:38;;;;;;;2.03;1.83;;;;;;;11.37;87.26;95550.28;5050666;28;20198;-77
2021/07/01 04:50:05;;;;;;;1.63;1.27;;;;;;;11.44;87.13;95556.50;5051026;28;20193;-78
2021/07/01 04:52:31;;;;;;;1.87;1.63;;;;;;;11.34;87.86;95546.19;5055996;28;20229;-78
2021/07/01 04:54:56;;;;;;;1.50;1.40;;;;;;;11.38;87.84;95549.31;5037823;28;20278;-77
2021/07/01 04:57:21;;;;;;;1.97;1.77;;;;;;;11.41;87.80;95557.63;5054735;28;20208;-78
2021/07/01 04:59:47;;;;;;;1.70;1.40;;;;;;;11.31;86.98;95544.72;5052001;28;20194;-77
2021/07/01 05:02:12;;;;;;;3.37;2.03;;;;;;;11.34;87.31;95544.41;5055786;28;20188;-78
2021/07/01 05:04:38;;;;;;;2.60;2.33;;;;;;;11.28;87.11;95542.41;5054396;28;20254;-78
2021/07/01 05:07:03;;;;;;;2.50;2.30;;;;;;;11.30;87.62;95542.25;5054084;28;20212;-78
2021/07/01 05:09:28;;;;;;;2.60;2.40;;;;;;;11.25;87.78;95544.50;5037591;28;20193;-78
2021/07/01 05:11:53;;;;;;;2.43;2.23;;;;;;;11.33;87.56;95545.38;5048952;28;20190;-78
2021/07/01 05:14:19;;;;;;;2.27;2.07;;;;;;;11.34;88.04;95543.59;5053685;28;20280;-77
2021/07/01 05:16:44;;;;;;;1.87;1.73;;;;;;;11.35;88.37;95547.81;5037616;28;20673;-78
2021/07/01 05:19:09;;;;;;;2.10;1.90;;;;;;;11.31;88.43;95551.72;5037580;28;20656;-78
2021/07/01 05:21:35;;;;;;;1.73;1.63;;;;;;;11.38;88.28;95542.31;5051318;28;20186;-79
2021/07/01 05:24:00;;;;;;;2.10;1.90;;;;;;;11.31;88.29;95551.72;5037384;28;20243;-81
2021/07/01 05:26:26;;;;;;;2.40;2.10;;;;;;;11.27;88.63;95551.19;5044187;28;20241;-76
2021/07/01 05:28:51;;;;;;;4.10;2.33;;;;;;;11.29;88.37;95549.25;5053769;28;20177;-77
2021/07/01 05:31:16;;;;;;;3.70;2.60;;;;;;;11.41;87.82;95555.03;5054065;28;20182;-77
2021/07/01 05:33:42;;;;;;;3.33;2.70;;;;;;;11.42;87.25;95554.06;5050438;28;20202;-77
2021/07/01 05:36:09;;;;;;;4.03;2.70;;;;;;;11.41;86.98;95549.81;5051965;28;20265;-78
2021/07/01 05:38:34;;;;;;;3.43;2.43;;;;;;;11.40;87.21;95550.81;5055138;28;20185;-77
2021/07/01 05:40:59;;;;;;;5.30;3.00;;;;;;;11.51;87.26;95557.53;5053536;28;20261;-77
2021/07/01 05:43:25;;;;;;;5.00;3.10;;;;;;;11.54;86.77;95546.81;5050303;28;20193;-77
2021/07/01 05:45:51;;;;;;;5.07;3.00;;;;;;;11.58;86.32;95554.16;5036697;28;20688;-79
2021/07/01 05:48:18;;;;;;;3.17;2.87;;;;;;;11.72;85.55;95549.34;5053938;28;20277;-78
2021/07/01 05:51:06;;;;;;;3.20;2.90;;;;;;;11.72;85.89;95555.38;5037342;28;20174;-77
2021/07/01 05:53:42;;;;;;;3.43;2.90;;;;;;;11.85;85.40;95555.81;5047644;28;20218;-77
2021/07/01 05:56:08;;;;;;;2.80;2.60;;;;;;;12.01;84.91;95562.03;5052256;28;20214;-78
2021/07/01 05:58:33;;;;;;;3.47;2.97;;;;;;;12.04;84.47;95559.97;5059053;28;20185;-78
2021/07/01 06:00:58;;;;;;;3.37;2.60;;;;;;;12.06;83.62;95558.00;5056689;28;20182;-77
2021/07/01 06:03:24;;;;;;;4.47;3.47;;;;;;;12.09;83.78;95549.88;5052374;28;20178;-76
2021/07/01 06:05:57;;;;;;;3.20;2.80;;;;;;;12.31;83.39;95561.53;5051005;28;20657;-77
2021/07/01 06:08:25;;;;;;;2.80;2.60;;;;;;;12.42;83.15;95565.63;5052967;28;20236;-76
2021/07/01 06:10:51;;;;;;;3.37;2.87;;;;;;;12.37;83.25;95565.31;5052797;28;20228;-75
2021/07/01 06:13:23;;;;;;;3.87;2.50;;;;;;;12.43;82.73;95567.25;5052194;28;20677;-76
2021/07/01 06:15:50;;;;;;;3.33;2.30;;;;;;;12.29;82.10;95576.50;5047391;28;20190;-76
2021/07/01 06:18:15;;;;;;;3.40;3.10;;;;;;;12.31;82.68;95577.16;5035711;28;20182;-75
2021/07/01 06:20:41;;;;;;;2.60;2.40;;;;;;;12.26;82.88;95582.00;5035565;28;20196;-76
2021/07/01 06:23:06;;;;;;;2.70;2.50;;;;;;;12.05;83.14;95579.81;5052359;28;20680;-77
2021/07/01 06:25:31;;;;;;;2.67;2.47;;;;;;;12.28;82.85;95576.63;5046315;28;20213;-76
2021/07/01 06:27:57;;;;;;;3.17;2.60;;;;;;;12.21;81.74;95584.28;5049922;28;20202;-76
2021/07/01 06:30:23;;;;;;;3.83;2.63;;;;;;;12.20;82.33;95582.66;5052576;28;20186;-77
2021/07/01 06:32:51;;;;;;;3.47;3.17;;;;;;;12.18;82.65;95576.75;5052192;28;20197;-76
2021/07/01 06:35:19;;;;;;;3.93;2.83;;;;;;;12.35;81.90;95581.06;5052022;28;20185;-76
2021/07/01 06:37:45;;;;;;;3.30;3.00;;;;;;;12.36;81.15;95587.88;5046210;28;20544;-76
2021/07/01 06:40:12;;;;;;;2.90;2.60;;;;;;;12.28;81.82;95581.84;5035059;28;20308;-76
2021/07/01 06:42:55;;;;;;;3.40;2.63;;;;;;;12.42;81.68;95583.84;5035289;28;20206;-75
2021/07/01 06:45:21;;;;;;;3.73;3.00;;;;;;;12.51;81.37;95588.13;5044872;28;20175;-75
2021/07/01 06:47:48;;;;;;;3.90;3.20;;;;;;;12.46;81.25;95590.41;5044006;28;20206;-77
2021/07/01 06:50:15;;;;;;;2.80;2.60;;;;;;;12.65;80.57;95590.13;5035163;28;20174;-77
2021/07/01 06:52:44;;;;;;;3.20;2.87;;;;;;;12.87;80.30;95588.69;5053026;28;20209;-76
2021/07/01 06:55:14;;;;;;;2.60;2.40;;;;;;;12.96;79.92;95587.72;5034826;28;20672;-76
2021/07/01 06:57:40;;;;;;;4.07;2.60;;;;;;;13.00;79.07;95598.66;5044320;28;20293;-75
2021/07/01 07:00:13;;;;;;;3.27;2.60;;;;;;;13.10;78.75;95604.53;5049698;28;20219;-76
2021/07/01 07:02:40;;;;;;;2.70;2.50;;;;;;;13.04;78.14;95599.94;5052972;28;20653;-77
2021/07/01 07:05:08;;;;;;;2.93;2.70;;;;;;;13.21;77.92;95604.22;5051296;28;20178;-75
2021/07/01 07:07:34;;;;;;;4.17;3.30;;;;;;;13.31;77.29;95602.28;5050520;28;20231;-76
2021/07/01 07:10:04;;;;;;;3.23;2.93;;;;;;;13.60;76.91;95603.56;5037444;28;20716;-76
2021/07/01 07:12:31;;;;;;;3.17;2.40;;;;;;;13.76;76.42;95608.78;5052745;28;20213;-77
2021/07/01 07:14:57;;;;;;;4.27;2.57;;;;;;;13.72;75.85;95610.09;5053382;28;20540;-76
2021/07/01 07:17:27;;;;;;;3.07;2.53;;;;;;;13.69;76.50;95612.19;5051849;28;20206;-75
2021/07/01 07:19:54;;;;;;;2.40;2.20;;;;;;;13.93;76.06;95609.56;5048265;28;20608;-76
2021/07/01 07:22:20;;;;;;;3.60;2.60;;;;;;;13.99;75.37;95610.69;5050956;28;20214;-75
2021/07/01 07:24:52;;;;;;;3.23;2.57;;;;;;;13.96;74.82;95613.63;5051338;28;20174;-76
2021/07/01 07:27:25;;;;;;;3.33;2.50;;;;;;;13.97;74.51;95616.09;5034967;28;20220;-77
2021/07/01 07:29:51;;;;;;;3.47;2.90;;;;;;;13.87;75.25;95618.88;5044299;28;20182;-77
2021/07/01 07:32:16;;;;;;;4.47;2.70;;;;;;;13.96;74.66;95619.69;5043863;28;20209;-76
2021/07/01 07:34:42;;;;;;;3.27;2.67;;;;;;;13.91;74.21;95624.56;5034378;28;20240;-77
2021/07/01 07:37:08;;;;;;;2.63;2.43;;;;;;;13.67;75.02;95622.81;5051171;28;20190;-77
2021/07/01 07:39:33;;;;;;;2.80;2.53;;;;;;;13.65;75.60;95619.56;5048573;28;20658;-76
2021/07/01 07:41:59;;;;;;;2.90;2.47;;;;;;;13.79;74.69;95625.91;5050540;28;20239;-76
2021/07/01 07:44:25;;;;;;;4.43;2.80;;;;;;;13.82;74.53;95625.56;5033812;28;20298;-77
2021/07/01 07:46:51;;;;;;;4.30;2.80;;;;;;;14.04;73.70;95624.03;5051281;28;20284;-74
2021/07/01 07:49:17;;;;;;;3.73;2.70;;;;;;;14.11;73.70;95618.00;5050866;28;20221;-75
2021/07/01 07:51:43;;;;;;;3.70;2.70;;;;;;;14.15;73.05;95619.31;5045402;28;20188;-75
2021/07/01 07:54:09;;;;;;;3.10;2.87;;;;;;;14.37;71.67;95624.78;5050512;28;20212;-75
2021/07/01 07:56:36;;;;;;;3.30;3.00;;;;;;;14.48;72.11;95611.38;5034952;28;20193;-78
2021/07/01 07:59:03;;;;;;;4.27;2.73;;;;;;;14.69;71.21;95613.41;5051286;28;20184;-75
2021/07/01 08:01:33;;;;;;;3.80;2.53;;;;;;;14.85;71.08;95607.28;5046380;28;20221;-74
2021/07/01 08:04:02;;;;;;;4.60;2.83;;;;;;;14.91;70.28;95617.84;5033800;28;20261;-77
2021/07/01 08:06:28;;;;;;;3.80;2.77;;;;;;;15.08;70.25;95618.56;5051741;28;20276;-76
2021/07/01 08:08:53;;;;;;;5.50;2.90;;;;;;;15.04;70.64;95621.72;5050689;28;20584;-75
2021/07/01 08:11:20;;;;;;;6.67;2.70;;;;;;;14.80;70.95;95618.25;5033354;28;20228;-75
2021/07/01 08:13:46;;;;;;;2.90;2.70;;;;;;;14.69;70.59;95613.41;5031974;28;20221;-76
2021/07/01 08:16:12;;;;;;;4.47;3.10;;;;;;;14.47;70.56;95614.16;5031850;28;20268;-75
2021/07/01 08:18:40;;;;;;;3.23;2.90;;;;;;;14.44;71.47;95610.06;5030697;28;20178;-76
2021/07/01 08:21:07;;;;;;;3.13;2.87;;;;;;;14.43;71.58;95619.69;5038182;28;20270;-75
2021/07/01 08:23:33;;;;;;;4.03;2.88;;;;;;;14.65;72.43;95609.50;5043657;28;20200;-76
2021/07/01 08:26:01;;;;;;;3.77;3.17;;;;;;;14.93;70.45;95601.97;5051590;28;20180;-76
2021/07/01 08:28:26;;;;;;;3.00;2.80;;;;;;;14.94;69.73;95607.06;5050010;28;20205;-76
2021/07/01 08:30:53;;;;;;;3.83;2.87;;;;;;;14.55;70.65;95617.53;5052951;28;20178;-75
2021/07/01 08:33:20;;;;;;;3.60;3.30;;;;;;;14.79;70.49;95608.78;5050918;28;20209;-75
2021/07/01 08:35:53;;;;;;;3.50;3.20;;;;;;;14.79;69.53;95613.19;5048349;28;20220;-76
2021/07/01 08:38:19;;;;;;;5.23;3.67;;;;;;;14.56;71.24;95613.13;5033589;28;20182;-74
2021/07/01 08:40:46;;;;;;;5.30;3.50;;;;;;;14.62;70.91;95618.50;5048431;28;20649;-74
2021/07/01 08:43:13;;;;;;;3.60;3.30;;;;;;;14.96;70.70;95615.53;5043927;28;20193;-74
2021/07/01 08:45:50;;;;;;;5.07;3.23;;;;;;;15.15;69.65;95611.66;5046919;28;20597;-75
2021/07/01 08:48:23;;;;;;;4.03;3.28;;;;;;;15.25;69.50;95621.88;5031523;28;20178;-74
2021/07/01 08:50:57;;;;;;;4.55;3.67;;;;;;;15.33;68.60;95621.00;5013425;28;20178;-75
2021/07/01 08:53:39;;;;;;;3.47;3.17;;;;;;;15.47;68.76;95623.69;5029912;28;20280;-75
2021/07/01 08:56:10;;;;;;;3.57;3.23;;;;;;;15.26;69.13;95620.91;5041432;28;20239;-75
2021/07/01 08:58:47;;;;;;;3.90;3.47;;;;;;;15.23;69.25;95623.88;5051254;28;20182;-75
2021/07/01 09:01:12;;;;;;;5.63;3.43;;;;;;;15.20;68.52;95634.69;5033212;28;20178;-75
2021/07/01 09:03:39;;;;;;;4.47;3.25;;;;;;;14.82;69.36;95623.28;5049818;28;20185;-75
2021/07/01 09:06:07;;;;;;;3.40;3.10;;;;;;;14.85;69.63;95622.97;5041928;28;20233;-75
2021/07/01 09:08:33;;;;;;;3.42;2.92;;;;;;;14.82;69.58;95636.38;5049720;28;20188;-75
2021/07/01 09:11:01;;;;;;;3.53;2.90;;;;;;;14.23;70.46;95638.56;5033153;28;20186;-75
2021/07/01 09:13:28;;;;;;;5.40;2.40;;;;;;;14.32;71.01;95640.97;5049601;28;20214;-75
2021/07/01 09:15:53;;;;;;;4.50;2.93;;;;;;;14.23;71.33;95636.75;5031402;28;20193;-76
2021/07/01 09:18:20;;;;;;;4.30;2.63;;;;;;;14.20;71.12;95641.47;5034141;28;20170;-76
2021/07/01 09:20:45;;;;;;;3.27;2.47;;;;;;;14.35;71.11;95647.66;5050365;28;20189;-76
2021/07/01 09:23:11;;;;;;;6.23;2.80;;;;;;;14.28;71.83;95646.69;5050425;28;20284;-75
2021/07/01 09:25:38;;;;;;;2.47;2.27;;;;;;;14.36;70.81;95644.84;5050499;28;20189;-76
2021/07/01 09:28:04;;;;;;;2.77;2.57;;;;;;;14.51;70.73;95642.41;5030025;28;20208;-76
2021/07/01 09:30:31;;;;;;;3.23;2.60;;;;;;;14.83;69.10;95638.81;5049844;28;20194;-76
2021/07/01 09:32:58;;;;;;;2.33;2.13;;;;;;;14.94;68.67;95637.63;5049981;28;20236;-77
2021/07/01 09:35:27;;;;;;;2.33;2.13;;;;;;;15.13;68.96;95633.75;5049736;28;20182;-77
2021/07/01 09:37:53;;;;;;;3.97;2.50;;;;;;;14.99;69.49;95641.34;5045850;28;20344;-77
2021/07/01 09:40:20;;;;;;;4.03;2.20;;;;;;;14.49;70.78;95643.53;5036471;28;20224;-76
2021/07/01 09:42:57;;;;;;;2.30;2.10;;;;;;;14.49;72.71;95641.75;5053436;28;20186;-76
2021/07/01 09:45:24;;;;;;;2.10;1.90;;;;;;;14.45;73.44;95643.88;5054892;28;20656;-76
2021/07/01 09:48:12;;;;;;;2.93;2.13;;;;;;;14.00;75.82;95639.25;5053297;28;20236;-75
2021/07/01 09:50:45;;;;;;;2.60;2.20;;;;;;;13.83;77.60;95645.47;5040204;28;20653;-77
2021/07/01 09:53:14;;;;;;;2.20;1.80;;;;;;;13.74;78.89;95649.88;5038793;28;20692;-76
2021/07/01 09:55:40;;;;;;;1.80;1.67;;;;;;;13.79;79.13;95652.81;5053742;28;20178;-77
2021/07/01 09:58:10;;;;;;;2.37;2.13;;;;;;;14.25;76.54;95645.22;5051872;28;20205;-76
2021/07/01 10:00:36;;;;;;;2.73;2.43;;;;;;;14.43;75.20;95651.03;5032917;28;20192;-76
2021/07/01 10:03:11;;;;;;;2.63;2.40;;;;;;;14.79;73.13;95653.22;5052860;28;20186;-76
2021/07/01 10:05:37;;;;;;;2.73;2.53;;;;;;;14.86;72.88;95654.16;5054466;28;20189;-77
2021/07/01 10:08:04;;;;;;;3.80;2.70;;;;;;;15.09;71.48;95648.16;5035873;28;20197;-77
2021/07/01 10:10:41;;;;;;;3.10;2.80;;;;;;;14.76;71.57;95650.97;5051559;28;20638;-77
2021/07/01 10:13:08;;;;;;;3.40;3.10;;;;;;;14.41;71.79;95655.63;5035322;28;20293;-77
2021/07/01 10:15:36;;;;;;;3.00;2.70;;;;;;;14.85;72.11;95651.72;5052407;28;20206;-76
2021/07/01 10:18:02;;;;;;;3.70;3.10;;;;;;;15.11;71.50;95651.44;5052357;28;20224;-76
2021/07/01 10:20:41;;;;;;;4.27;3.17;;;;;;;15.37;70.82;95646.66;5034532;28;20665;-75
2021/07/01 10:23:23;;;;;;;3.17;2.67;;;;;;;15.30;69.44;95656.19;5035568;28;20186;-76
2021/07/01 10:25:51;;;;;;;4.00;2.67;;;;;;;15.23;68.52;95655.25;5052688;28;20190;-77
2021/07/01 10:28:18;;;;;;;3.07;2.80;;;;;;;15.11;69.15;95656.66;5035895;28;20661;-76
2021/07/01 10:31:00;;;;;;;2.80;2.60;;;;;;;15.23;68.49;95658.69;5047045;28;20588;-77
2021/07/01 10:33:27;;;;;;;3.23;2.80;;;;;;;14.88;68.09;95667.88;5045506;28;20650;-76
2021/07/01 10:35:55;;;;;;;3.53;3.23;;;;;;;14.16;71.49;95669.75;5045499;28;20190;-77
2021/07/01 10:38:20;;;;;;;3.77;3.30;;;;;;;14.54;70.35;95664.75;5053287;28;20641;-76
2021/07/01 10:40:51;;;;;;;4.37;3.53;;;;;;;14.59;69.92;95667.69;5051652;28;20213;-77
2021/07/01 10:43:18;;;;;;;4.33;3.40;;;;;;;14.70;69.23;95668.13;5046766;28;20197;-77
2021/07/01 10:45:57;;;;;;;3.87;3.43;;;;;;;15.20;69.06;95658.22;5052422;28;20186;-77
2021/07/01 10:48:24;;;;;;;4.90;3.37;;;;;;;15.10;69.01;95658.44;5053454;28;20178;-77
2021/07/01 10:50:50;;;;;;;4.53;3.60;;;;;;;14.96;69.38;95657.38;5035751;28;20556;-76
2021/07/01 10:53:38;;;;;;;4.00;3.60;;;;;;;14.60;70.77;95672.75;5032656;28;20304;-77
2021/07/01 10:56:28;;;;;;;4.10;3.70;;;;;;;14.54;71.49;95673.41;5035615;28;20214;-76
2021/07/01 10:58:58;;;;;;;3.93;3.17;;;;;;;14.40;71.78;95677.53;5052008;28;20181;-76
2021/07/01 11:01:32;;;;;;;5.67;3.70;;;;;;;14.39;71.35;95670.63;5052609;28;20672;-77
2021/07/01 11:04:07;;;;;;;3.70;3.37;;;;;;;14.54;71.00;95685.66;5044870;28;20276;-76
2021/07/01 11:06:34;;;;;;;5.70;3.63;;;;;;;14.53;71.51;95676.19;5052660;28;20207;-76
2021/07/01 11:08:59;;;;;;;4.63;3.30;;;;;;;14.81;71.20;95672.16;5053813;28;20178;-76
2021/07/01 11:11:30;;;;;;;4.27;3.80;;;;;;;14.80;71.31;95678.38;5052769;28;20734;-76
2021/07/01 11:13:58;;;;;;;4.73;4.00;;;;;;;14.79;70.78;95671.50;5045288;28;20214;-77
2021/07/01 11:16:38;;;;;;;4.10;3.70;;;;;;;14.98;70.57;95670.28;5051537;28;20284;-76
2021/07/01 11:19:04;;;;;;;4.67;3.47;;;;;;;15.18;70.42;95665.41;5051343;28;20284;-75
2021/07/01 11:21:29;;;;;;;4.60;4.03;;;;;;;15.08;69.75;95672.69;5051645;28;20268;-75
2021/07/01 11:24:17;;;;;;;5.97;3.83;;;;;;;15.58;68.44;95665.16;5048568;28;20284;-76
2021/07/01 11:26:53;;;;;;;4.13;3.67;;;;;;;15.92;67.58;95661.31;5052413;28;20198;-76
2021/07/01 11:29:38;;;;;;;4.57;3.43;;;;;;;15.73;66.94;95659.19;5052673;28;20264;-76
2021/07/01 11:32:14;;;;;;;4.03;3.63;;;;;;;15.70;66.49;95662.13;5051173;28;20532;-76
2021/07/01 11:34:41;;;;;;;4.43;3.17;;;;;;;15.29;68.19;95668.47;5031835;28;20186;-76